Tiempo atmosférico en la estación meteorológica de Portocolom, Illes Balears (17 m.)



Fecha
DESCASC
Temp. máxima en grados centígrados (hora)
DESCASC
Temp. mínima en grados centígrados (hora)
DESCASC
Temp. media en grados centígrados
DESCASC
Racha de viento máxima en m/sg (hora)
DESCASC
Velocidad máxima media en intervalos de 10 minutos(hora)
DESCASC
Precipitaciones diarias en mm
DESCASC
Precipitaciones de 00:00 a 06:00 en mm
DESCASC
Precipitaciones de 06:00 a 12:00 en mm
DESCASC
Precipitaciones de 12:00 a 18:00 en mm
DESCASC
Precipitaciones de 18:00 a 24:00 en mm
DESCASC
05-12-2019 17.7 (11:50) 10 (07:10) 13.9 7.22 (14:20) 5.56 (13:50) 0.2 0 0.2 0 0
04-12-2019 17 (01:20) 10.6 (23:59) 13.8 21.94 (02:30) 11.94 (03:10) 71.8 23.8 47.2 0.8 0
03-12-2019 17 (23:30) 13.1 (00:00) 15.1 16.11 (07:10) 10.28 (21:50) 3.8 0 0 0 3.8
02-12-2019 15.7 (14:20) 13.6 (00:00) 14.7 13.33 (21:50) 8.33 (17:20) 5.2 1.4 3.6 0 0.2
01-12-2019 19.4 (14:10) 13.9 (00:00) 16.6 10.83 (03:20) 8.06 (03:10) 0 0 0 0 0
30-11-2019 18.5 (13:30) 12.7 (00:00) 15.6 10.28 (23:10) 7.5 (23:10) 0 0 0 0 0
29-11-2019 20.4 (14:10) 12.8 (00:00) 16.6 9.72 (05:40) 5.56 (05:40) 0 0 0 0 0
28-11-2019 19.6 (12:40) 13.3 (00:00) 16.5 11.11 (16:10) 8.06 (20:10) 0 0 0 0 0
27-11-2019 20.8 (12:50) 14.3 (00:00) 17.5 12.22 (04:10) 8.33 (04:20) 0 0 0 0 0
26-11-2019 19.4 (13:50) 12 (00:00) 15.7 10.28 (22:10) 7.22 (12:20) 0 0 0 0 0
25-11-2019 20.3 (15:20) 11.6 (00:00) 15.9 11.11 (12:50) 6.39 (12:30) 0 0 0 0 0
24-11-2019 17.2 (14:50) 12.1 (00:00) 14.7 10.83 (03:50) 5 (11:40) 0 0 0 0 0
23-11-2019 17 (03:30) 11.8 (00:00) 14.4 19.17 (00:10) 14.44 (00:10) 17.2 11.8 0.6 4.8 0
22-11-2019 17.9 (15:00) 13.2 (00:00) 15.5 21.94 (23:00) 16.94 (23:00) 79.8 12.2 49 1.2 17.4
21-11-2019 17.1 (13:00) 11 (00:00) 14.1 11.11 (14:10) 6.94 (14:40) 1.4 1.4 0 0 0
20-11-2019 14.7 (14:00) 6.5 (00:00) 10.6 11.11 (18:50) 7.78 (17:50) 5.2 0 0 0 5.2
19-11-2019 16.1 (13:10) 7.6 (00:00) 11.9 6.67 (13:20) 3.89 (12:30) 0.2 0.2 0 0 0
18-11-2019 14.5 (14:30) 9.9 (00:00) 12.2 12.5 (14:30) 6.39 (13:50) 2 1.8 0 0.2 0
17-11-2019 16.3 (11:30) 9.3 (00:00) 12.8 13.33 (13:30) 8.61 (13:30) 0 0 0 0 0
16-11-2019 13.2 (07:30) 8.6 (00:00) 10.9 11.11 (12:20) 6.39 (14:50) 0 0 0 0 0
15-11-2019 15.6 (13:50) 8.8 (00:00) 12.2 10.83 (10:20) 7.22 (10:20) 1.6 1.4 0.2 0 0
14-11-2019 18.3 (13:00) 9.5 (00:00) 13.9 17.5 (13:50) 12.22 (08:20) 0.6 0 0 0 0.6
13-11-2019 14 (00:10) 10.6 (00:00) 12.3 7.5 (16:00) 4.17 (16:00) 4.6 0 4.2 0.4 0
12-11-2019 18 (14:20) 10.6 (00:00) 14.3 8.89 (22:40) 5.28 (21:10) 0 0 0 0 0
11-11-2019 14.5 (13:20) 10.1 (06:20) 12.3 17.22 (06:00) 9.17 (10:10) 6.4 1.2 5.2 0 0
10-11-2019 16.5 (02:30) 8.9 (00:00) 12.7 15 (10:20) 9.44 (10:10) 12.4 1.6 9.6 1.2 0
09-11-2019 18.6 (13:30) 12.4 (00:00) 15.5 14.17 (03:40) 7.22 (00:30) 0 0 0 0 0
08-11-2019 17.2 (14:10) 10.5 (00:00) 13.9 15.28 (23:10) 8.33 (22:50) 0 0 0 0 0
07-11-2019 20.7 (13:40) 12.3 (00:00) 16.5 14.17 (13:20) 8.61 (13:00) 19.4 0 0 5.6 13.8
06-11-2019 20.9 (15:20) 12.2 (00:00) 16.5 9.17 (07:20) 5 (10:30) 0 0 0 0 0

Gráficas

Temp. máximas Temp. mínimas Temp. medias Precipitaciones Rachas de viento máximas Velocidades máximas media en intervalos de 10 minutos

Datos horarios

Fecha y hora oficial Temperatura (ºC) Velocidad del viento (km/h) Dirección del viento Racha (km/h) Dirección de racha Precipitación (mm) Presión (hPa) Tendencia (hPa) Humedad (%)
2019-12-05 23:00:00 10.8 0 Calma 8 Norte 0 1018.8 1 94
2019-12-05 22:00:00 11.1 5 Norte 9 Norte 0 1018.3 1.5 94
2019-12-05 21:00:00 11.7 4 Nordeste 9 Norte 0 1018.1 1.9 92
2019-12-05 20:00:00 12.4 4 Noroeste 10 Norte 0 1017.8 2.1 90
2019-12-05 19:00:00 13.2 7 Noroeste 13 Oeste 0 1016.8 1.8 88
2019-12-05 18:00:00 14.2 6 Noroeste 12 Sudoeste 0 1016.2 1.6 83
2019-12-05 17:00:00 16 8 Oeste 19 Oeste 0 1015.7 1.4 77
2019-12-05 16:00:00 17 13 Sudoeste 19 Sudoeste 0 1015 1 73
2019-12-05 15:00:00 17.1 14 Sudoeste 26 Sudoeste 0 1014.6 0.5 77
2019-12-05 14:00:00 17.3 19 Sudoeste 25 Sudoeste 0 1014.3 0.4 73
2019-12-05 13:00:00 17.2 16 Sudoeste 23 Sudoeste 0 1014 0.8 75
2019-12-05 12:00:00 17.6 12 Sudoeste 15 Sudoeste 0 1014.1 2 79
2019-12-05 11:00:00 16.2 7 Sudoeste 13 Sudoeste 0 1013.9 2.6 81
2019-12-05 10:00:00 14.9 3 Sudoeste 6 Noroeste 0 1013.2 2.9 90
2019-12-05 09:00:00 11.5 6 Norte 10 Noroeste 0.2 1012.1 2.5 92
2019-12-05 08:00:00 10.5 6 Norte 10 Norte 0 1011.3 2.2 93
2019-12-05 07:00:00 10.3 5 Noroeste 10 Norte 0 1010.3 1.5 94
2019-12-05 06:00:00 10.3 8 Norte 9 Norte 0 1009.6 1.4 94
2019-12-05 05:00:00 11.8 2 Sudoeste 10 Norte 0 1009.1 1.7 93
2019-12-05 04:00:00 11.8 8 Norte 13 Oeste 0 1008.8 1.6 91
2019-12-05 03:00:00 12.6 9 Oeste 16 Oeste 0 1008.2 1.3 93
2019-12-05 02:00:00 11.6 8 Oeste 11 Norte 0 1007.4 1.2 94
2019-12-05 01:00:00 10.7 8 Norte 11 Norte 0 1007.2 1.4 94
2019-12-05 00:00:00 10.6 10 Norte 13 Norte 0 1006.9 1.6 93
2019-12-04 23:00:00 11.4 10 Norte 13 Norte 0 1006.2 1.6 93
2019-12-04 22:00:00 11.7 9 Norte 18 Norte 0 1005.8 2.1 92
2019-12-04 21:00:00 11.3 10 Norte 17 Norte 0 1005.3 2.2 92
2019-12-04 20:00:00 11.6 10 Norte 15 Norte 0 1004.6 1.9 93
2019-12-04 19:00:00 11.6 10 Norte 17 Nordeste 0 1003.7 1.9 93
2019-12-04 18:00:00 12.5 8 Nordeste 14 Nordeste 0 1003.1 1.5 92
2019-12-04 17:00:00 13 10 Norte 21 Nordeste 0 1002.7 1 91
2019-12-04 16:00:00 12.7 11 Nordeste 24 Nordeste 0 1001.8 0.5 89
2019-12-04 15:00:00 12.2 12 Nordeste 28 Nordeste 0 1001.6 -0.4 89
2019-12-04 14:00:00 12.9 14 Nordeste 33 Nordeste 0 1001.7 -0.3 85
2019-12-04 13:00:00 12.1 17 Nordeste 27 Nordeste 0.8 1001.3 -0.3 92
2019-12-04 12:00:00 12.3 20 Nordeste 30 Nordeste 11.4 1002 0.8 92
2019-12-04 11:00:00 12.9 17 Sudoeste 71 Sudeste 14 1002 1.3 89
2019-12-04 10:00:00 16.6 24 Sudeste 49 Sudeste 0.2 1001.6 0.1 77
2019-12-04 09:00:00 16.3 31 Sur 60 Sudeste 0 1001.2 -0.4 85
2019-12-04 08:00:00 16.8 39 Sudeste 60 Sudeste 0.2 1000.7 -0.9 82
2019-12-04 07:00:00 14.3 13 Sur 53 Sudeste 21.4 1001.5 -0.3 87
2019-12-04 06:00:00 16.9 27 Este 62 Sudeste 0 1001.6 -1.3 90
2019-12-04 05:00:00 16.9 43 Sudeste 74 Sudeste 0.2 1001.6 -1.9 89
2019-12-04 04:00:00 16.7 35 Este 69 Sudeste 0.8 1001.8 -3 90
2019-12-04 03:00:00 16.4 40 Sudeste 79 Sudeste 17.6 1002.9 -3.1 91
2019-12-04 02:00:00 16.7 35 Este 67 Este 0.8 1003.5 -4 87
2019-12-04 01:00:00 16.7 37 Este 63 Este 4.4 1004.8 -2.8 86
2019-12-04 00:00:00 16.5 31 Este 51 Este 3.6 1006 -2.3 90
2019-12-03 23:00:00 16.7 27 Este 55 Este 0.2 1007.5 -0.8 87
2019-12-03 22:00:00 16.6 29 Este 58 Este 0 1007.6 -0.6 88
2019-12-03 21:00:00 16.5 24 Nordeste 44 Este 0 1008.3 -0.1 86
2019-12-03 20:00:00 16.4 23 Nordeste 48 Este 0 1008.3 -0.7 84
2019-12-03 19:00:00 16 27 Nordeste 48 Nordeste 0 1008.2 -1.3 84
2019-12-03 18:00:00 15.5 26 Nordeste 45 Nordeste 0 1008.4 -1.5 78
2019-12-03 17:00:00 15.3 24 Nordeste 45 Nordeste 0 1009 -2.2 76
2019-12-03 16:00:00 15.1 23 Este 41 Este 0 1009.5 -2.7 75
2019-12-03 15:00:00 14.6 24 Este 43 Este 0 1009.9 -3.1 75
2019-12-03 14:00:00 14.3 19 Nordeste 34 Nordeste 0 1011.2 -2.4 74
2019-12-03 13:00:00 14.7 19 Nordeste 39 Este 0 1012.2 -1.5 71
2019-12-03 12:00:00 14.2 24 Nordeste 49 Nordeste 0 1013 -0.8 73
2019-12-03 11:00:00 13.7 29 Nordeste 48 Nordeste 0 1013.6 0.2 71
2019-12-03 10:00:00 13.2 28 Nordeste 51 Nordeste 0 1013.7 0.4 72
2019-12-03 09:00:00 13.3 31 Nordeste 54 Nordeste 0 1013.8 1 73
2019-12-03 08:00:00 13.3 34 Nordeste 58 Nordeste 0 1013.4 0.2 72
2019-12-03 07:00:00 13.5 28 Nordeste 49 Nordeste 0 1013.3 -0.1 72
2019-12-03 06:00:00 13.7 27 Nordeste 50 Nordeste 0 1012.8 -1.1 73
2019-12-03 05:00:00 13.5 28 Nordeste 49 Nordeste 0 1013.2 -0.5 73
2019-12-03 04:00:00 13.8 33 Nordeste 51 Nordeste 0 1013.4 -0.8 74
2019-12-03 03:00:00 14.1 27 Nordeste 51 Nordeste 0 1013.9 -0.5 74
2019-12-03 02:00:00 14.3 28 Nordeste 50 Nordeste 0 1013.7 -0.8 73
2019-12-03 01:00:00 14.4 26 Nordeste 44 Este 0 1014.2 -0.1 73
2019-12-03 00:00:00 14.5 27 Nordeste 46 Este 0 1014.4 0.1 73
2019-12-02 23:00:00 14.5 23 Nordeste 47 Nordeste 0 1014.5 0.6 72
2019-12-02 22:00:00 14.4 26 Nordeste 48 Nordeste 0 1014.3 1.2 73
2019-12-02 21:00:00 14.3 28 Nordeste 46 Nordeste 0 1014.3 1.4 72
2019-12-02 20:00:00 14.2 27 Nordeste 42 Nordeste 0.2 1013.9 1.3 73
2019-12-02 19:00:00 14.2 24 Nordeste 41 Nordeste 0 1013.1 0.6 73
2019-12-02 18:00:00 14.4 27 Nordeste 46 Nordeste 0 1012.9 0.6 75
2019-12-02 17:00:00 14.5 29 Nordeste 44 Nordeste 0 1012.6 0.2 74
2019-12-02 16:00:00 14.9 26 Nordeste 47 Nordeste 0 1012.5 -0.3 75
2019-12-02 15:00:00 14.8 28 Nordeste 42 Nordeste 0 1012.3 -0.8 75
2019-12-02 14:00:00 15.2 25 Nordeste 45 Nordeste 0 1012.4 -0.6 76
2019-12-02 13:00:00 14.3 25 Nordeste 41 Nordeste 0 1012.8 0.4 81
2019-12-02 12:00:00 14.1 26 Nordeste 40 Nordeste 2.6 1013.1 1.1 89
2019-12-02 11:00:00 14.2 21 Nordeste 41 Nordeste 0.8 1013 2.2 87
2019-12-02 10:00:00 14.7 26 Nordeste 41 Nordeste 0 1012.4 2 85
2019-12-02 09:00:00 13.7 12 Norte 45 Nordeste 0.2 1012 2.3 91
2019-12-02 08:00:00 14.1 22 Nordeste 35 Nordeste 0 1010.8 1.3 92
2019-12-02 07:00:00 13.7 10 Norte 17 Norte 0 1010.4 0.6 94
2019-12-02 06:00:00 15.1 8 Este 18 Este 0 1009.7 0.2 90
2019-12-02 05:00:00 15 8 Nordeste 15 Nordeste 0.6 1009.5 0.3 92
2019-12-02 04:00:00 15.1 6 Nordeste 16 Nordeste 0 1009.8 0.2 91
2019-12-02 03:00:00 14.4 9 Nordeste 16 Nordeste 0 1009.5 -0.7 94
2019-12-02 02:00:00 13.9 10 Norte 16 Nordeste 0.2 1009.2 -0.9 94
2019-12-02 01:00:00 14.6 11 Nordeste 19 Nordeste 0.6 1009.6 -0.2 93
2019-12-02 00:00:00 14.5 9 Norte 13 Norte 0 1010.2 0.4 89
2019-12-01 23:00:00 14 9 Norte 12 Norte 0 1010.1 0.5 91
2019-12-01 22:00:00 14.6 6 Norte 16 Nordeste 0 1009.8 0.4 90
2019-12-01 21:00:00 15.6 9 Este 15 Este 0 1009.8 0.9 87
2019-12-01 20:00:00 14.8 3 Nordeste 8 Noroeste 0 1009.6 0.9 88
2019-12-01 19:00:00 14.7 3 Norte 10 Noroeste 0 1009.4 0.6 88
2019-12-01 18:00:00 15.5 5 Oeste 17 Sudoeste 0 1008.9 0.2 85
2019-12-01 17:00:00 16.8 10 Oeste 22 Oeste 0 1008.7 -0.1 81
2019-12-01 16:00:00 17.8 17 Oeste 28 Sudoeste 0 1008.8 -0.4 77
2019-12-01 15:00:00 19 13 Sudoeste 26 Sudoeste 0 1008.7 -1.2 71
2019-12-01 14:00:00 19.2 15 Oeste 28 Sudoeste 0 1008.8 -1.9 68
2019-12-01 13:00:00 18.9 15 Oeste 28 Oeste 0 1009.2 -1.4 67
2019-12-01 12:00:00 18.3 20 Oeste 29 Sudoeste 0 1009.9 -0.4 72
2019-12-01 11:00:00 17.3 14 Oeste 25 Oeste 0 1010.7 0.4 80
2019-12-01 10:00:00 16.5 9 Oeste 19 Sudoeste 0 1010.6 0.4 86
2019-12-01 09:00:00 15.7 11 Oeste 17 Oeste 0 1010.3 -0.1 86
2019-12-01 08:00:00 15.5 11 Oeste 19 Sudoeste 0 1010.3 -0.5 87
2019-12-01 07:00:00 15.4 8 Oeste 14 Sudoeste 0 1010.2 -0.7 87
2019-12-01 06:00:00 15.5 7 Oeste 12 Oeste 0 1010.4 -1.1 87
2019-12-01 05:00:00 16.1 12 Oeste 27 Sudoeste 0 1010.8 -1.4 84
2019-12-01 04:00:00 16.1 19 Sudoeste 39 Sudoeste 0 1010.9 -1.7 87
2019-12-01 03:00:00 16.2 25 Sudoeste 34 Sudoeste 0 1011.5 -1.7 88
2019-12-01 02:00:00 16.2 23 Sudoeste 36 Sudoeste 0 1012.2 -1.2 88
2019-12-01 01:00:00 16.3 27 Sudoeste 36 Sudoeste 0 1012.6 -1.1 89
2019-12-01 00:00:00 16.3 26 Sudoeste 37 Sudoeste 0 1013.2 -1.2 90
2019-11-30 23:00:00 16.3 27 Sudoeste 35 Sudoeste 0 1013.4 -0.9 90
2019-11-30 22:00:00 16.4 18 Sudoeste 29 Sudoeste 0 1013.7 -0.8 91
2019-11-30 21:00:00 16.1 7 Sudoeste 20 Oeste 0 1014.4 -0.3 88
2019-11-30 20:00:00 16 11 Sudoeste 18 Sudoeste 0 1014.3 -0.6 88
2019-11-30 19:00:00 16.3 13 Sudoeste 27 Sudoeste 0 1014.5 -0.7 85
2019-11-30 18:00:00 16.1 17 Sudoeste 27 Sudoeste 0 1014.7 -0.9 86
2019-11-30 17:00:00 16.6 21 Sudoeste 31 Sudoeste 0 1014.9 -1.4 86
2019-11-30 16:00:00 17.6 24 Sudoeste 32 Sudoeste 0 1015.2 -1.9 83
2019-11-30 15:00:00 17.9 21 Sudoeste 32 Sudoeste 0 1015.6 -2.6 82
2019-11-30 14:00:00 18.4 24 Sudoeste 33 Sudoeste 0 1016.3 -2.1 80
2019-11-30 13:00:00 17.9 21 Sudoeste 26 Sudoeste 0 1017.1 -1.4 81
2019-11-30 12:00:00 17.2 13 Oeste 27 Sudoeste 0 1018.2 0 79
2019-11-30 11:00:00 17.4 17 Sudoeste 24 Sudoeste 0 1018.4 0.1 83
2019-11-30 10:00:00 16.5 6 Sudoeste 13 Oeste 0 1018.5 0.4 91
2019-11-30 09:00:00 14.7 6 Oeste 12 Oeste 0 1018.2 0.2 93
2019-11-30 08:00:00 13.6 6 Noroeste 11 Oeste 0 1018.3 0.1 95
2019-11-30 07:00:00 13.1 7 Oeste 10 Oeste 0 1018.1 -0.1 94
2019-11-30 06:00:00 13.5 5 Noroeste 9 Noroeste 0 1018 -0.6 94
2019-11-30 05:00:00 13.6 5 Noroeste 10 Oeste 0 1018.2 -0.3 94
2019-11-30 04:00:00 13.9 5 Oeste 9 Oeste 0 1018.2 -0.5 93
2019-11-30 03:00:00 13.7 2 Noroeste 10 Sur 0 1018.6 -0.4 94
2019-11-30 02:00:00 14.9 9 Sur 14 Sur 0 1018.5 -0.2 93
2019-11-30 01:00:00 12.9 4 Nordeste 11 Norte 0 1018.7 -0.1 94
2019-11-30 00:00:00 13 9 Norte 12 Norte 0 1019 0.4 93
2019-11-29 23:00:00 13.4 9 Norte 12 Norte 0 1018.7 0.5 92
2019-11-29 22:00:00 13.2 9 Norte 10 Norte 0 1018.8 1 91
2019-11-29 21:00:00 13.9 8 Norte 11 Norte 0 1018.6 1.6 90
2019-11-29 20:00:00 14 9 Norte 12 Nordeste 0 1018.2 1.6 88
2019-11-29 19:00:00 14.7 8 Norte 15 Norte 0 1017.8 1.9 87
2019-11-29 18:00:00 15.9 10 Norte 15 Norte 0 1017 1 84
2019-11-29 17:00:00 17.6 3 Oeste 13 Oeste 0 1016.6 0.6 80
2019-11-29 16:00:00 17.9 5 Oeste 24 Oeste 0 1015.9 -0.3 78
2019-11-29 15:00:00 18.6 13 Oeste 24 Oeste 0 1016 -0.1 75
2019-11-29 14:00:00 20.3 11 Oeste 24 Oeste 0 1016 0.1 69
2019-11-29 13:00:00 19.5 14 Oeste 29 Oeste 0 1016.2 1.1 69
2019-11-29 12:00:00 18.7 10 Oeste 33 Oeste 0 1016.1 1.4 73
2019-11-29 11:00:00 16.7 15 Oeste 28 Oeste 0 1015.9 2.2 81
2019-11-29 10:00:00 15.7 17 Oeste 28 Oeste 0 1015.1 2 83
2019-11-29 09:00:00 15.4 3 Noroeste 21 Oeste 0 1014.7 2.5 84
2019-11-29 08:00:00 15.4 10 Oeste 26 Oeste 0 1013.7 1.5 83
2019-11-29 07:00:00 15.1 8 Noroeste 34 Noroeste 0 1013.1 0.8 83
2019-11-29 06:00:00 15 18 Noroeste 35 Oeste 0 1012.2 -0.3 80
2019-11-29 05:00:00 15 16 Oeste 29 Oeste 0 1012.2 0 79
2019-11-29 04:00:00 14.9 17 Oeste 32 Noroeste 0 1012.3 -0.8 77
2019-11-29 03:00:00 14.7 7 Noroeste 33 Oeste 0 1012.5 -1 78
2019-11-29 02:00:00 14.7 17 Oeste 28 Oeste 0 1012.2 -1.2 84
2019-11-29 01:00:00 14.6 9 Sudoeste 19 Oeste 0 1013.1 -0.4 87
2019-11-29 00:00:00 14.4 14 Sudoeste 19 Sudoeste 0 1013.5 0.1 89
2019-11-28 23:00:00 14.3 14 Sudoeste 21 Sudoeste 0 1013.4 0.3 88
2019-11-28 22:00:00 14.5 14 Sudoeste 29 Oeste 0 1013.5 0.4 87
2019-11-28 21:00:00 14.9 19 Oeste 37 Oeste 0 1013.4 0.5 83
2019-11-28 20:00:00 15 26 Oeste 35 Oeste 0 1013.1 0.2 81
2019-11-28 19:00:00 15.4 21 Oeste 32 Oeste 0 1013.1 1 80
2019-11-28 18:00:00 15.7 17 Oeste 38 Oeste 0 1012.9 0.6 78
2019-11-28 17:00:00 16.2 17 Oeste 40 Oeste 0 1012.9 0.5 75
2019-11-28 16:00:00 18.2 20 Oeste 36 Oeste 0 1012.1 -0.7 66
2019-11-28 15:00:00 18.1 24 Oeste 39 Oeste 0 1012.3 -1.2 70
2019-11-28 14:00:00 18.9 22 Oeste 40 Sudoeste 0 1012.4 -0.7 66
2019-11-28 13:00:00 19.6 17 Oeste 30 Oeste 0 1012.8 0.5 62
2019-11-28 12:00:00 19.3 15 Oeste 25 Sudoeste 0 1013.5 1.8 63
2019-11-28 11:00:00 18.4 12 Oeste 27 Oeste 0 1013.1 2 66
2019-11-28 10:00:00 17.1 13 Oeste 31 Noroeste 0 1012.3 1.8 72
2019-11-28 09:00:00 15.7 14 Oeste 32 Oeste 0 1011.7 2.3 78
2019-11-28 08:00:00 14.3 14 Oeste 24 Noroeste 0 1011.1 2.3 83
2019-11-28 07:00:00 14.9 15 Oeste 30 Noroeste 0 1010.5 2.1 79
2019-11-28 06:00:00 13.4 10 Noroeste 20 Noroeste 0 1009.4 0.7 74
2019-11-28 05:00:00 14.2 10 Norte 18 Noroeste 0 1008.8 0.4 79
2019-11-28 04:00:00 14.8 12 Noroeste 27 Oeste 0 1008.4 -0.6 80
2019-11-28 03:00:00 14.9 17 Oeste 26 Oeste 0 1008.7 -0.6 78
2019-11-28 02:00:00 14.1 5 Oeste 14 Oeste 0 1008.4 -1 78
2019-11-28 01:00:00 14.5 4 Noroeste 18 Noroeste 0 1009 -0.3 74
2019-11-28 00:00:00 15 13 Oeste 21 Oeste 0 1009.3 0.2 74
2019-11-27 23:00:00 15.4 10 Oeste 26 Noroeste 0 1009.4 0.4 77
2019-11-27 22:00:00 14.7 8 Oeste 19 Oeste 0 1009.3 0.7 85
2019-11-27 21:00:00 14.5 6 Sudoeste 12 Sudoeste 0 1009.1 0.9 88
2019-11-27 20:00:00 15.2 8 Sudoeste 23 Noroeste 0 1009 1.3 84
2019-11-27 19:00:00 15.7 8 Oeste 16 Oeste 0 1008.6 1.4 81
2019-11-27 18:00:00 16.6 7 Sudoeste 21 Oeste 0 1008.2 1.3 76
2019-11-27 17:00:00 18.3 12 Oeste 30 Oeste 0 1007.7 1 68
2019-11-27 16:00:00 19.4 20 Oeste 35 Oeste 0 1007.2 0.1 66
2019-11-27 15:00:00 19.5 14 Oeste 32 Oeste 0 1006.9 -0.6 67
2019-11-27 14:00:00 19.7 20 Oeste 42 Noroeste 0 1006.7 -1.2 63
2019-11-27 06:00:00 16.4 26 Oeste 41 Oeste 0 1004.8 -0.6 89
2019-11-27 05:00:00 16.4 27 Oeste 44 Oeste 0 1004.9 -1.1 90
2019-11-27 04:00:00 16.2 23 Oeste 42 Oeste 0 1005 -1.6 90
2019-11-27 03:00:00 16 15 Oeste 37 Oeste 0 1005.4 -1.6 89
2019-11-27 02:00:00 15.9 16 Oeste 32 Sudoeste 0 1006 -1.6 90
2019-11-27 01:00:00 15.8 13 Sudoeste 29 Sudoeste 0 1006.6 -1.2 92
2019-11-27 00:00:00 15.5 15 Sudoeste 32 Sudoeste 0 1007 -1.4 91
2019-11-26 23:00:00 16 14 Sudoeste 37 Sudoeste 0 1007.6 -1.3 90
2019-11-26 22:00:00 16 22 Sudoeste 36 Sudoeste 0 1007.8 -0.7 92
2019-11-26 21:00:00 15.6 15 Sudoeste 24 Sudoeste 0 1008.4 0.1 91
2019-11-26 20:00:00 15.5 16 Oeste 23 Oeste 0 1008.9 -0.3 88
2019-11-26 19:00:00 15.7 14 Sudoeste 24 Oeste 0 1008.5 -0.5 87
2019-11-26 18:00:00 16.3 16 Sudoeste 23 Sudoeste 0 1008.3 -0.5 86
2019-11-26 17:00:00 17.7 17 Oeste 33 Oeste 0 1009.2 -0.3 78
2019-11-26 16:00:00 18.6 21 Oeste 34 Sudoeste 0 1009 -1.1 66
2019-11-26 15:00:00 19 17 Oeste 33 Oeste 0 1008.8 -1.9 63
2019-11-26 14:00:00 19.4 15 Oeste 29 Oeste 0 1009.5 -1.8 69
2019-11-26 13:00:00 18.8 16 Sudoeste 35 Sudoeste 0 1010.1 -1.4 73
2019-11-26 12:00:00 18.6 24 Sudoeste 31 Sudoeste 0 1010.7 -0.8 83
2019-11-26 11:00:00 18 18 Sudoeste 27 Sudoeste 0 1011.3 0.1 86
2019-11-26 10:00:00 17.3 14 Sudoeste 18 Sudoeste 0 1011.5 0.5 86
2019-11-26 09:00:00 15.4 9 Oeste 15 Oeste 0 1011.5 0.5 92
2019-11-26 08:00:00 14.5 7 Oeste 14 Oeste 0 1011.2 0.2 90
2019-11-26 07:00:00 14.8 10 Oeste 14 Oeste 0 1011 -0.1 89
2019-11-26 06:00:00 14.8 13 Oeste 20 Oeste 0 1011 -0.5 81
2019-11-26 05:00:00 14.3 9 Oeste 13 Oeste 0 1011 -0.9 69
2019-11-26 04:00:00 14.3 8 Oeste 12 Sudoeste 0 1011.1 -0.9 68
2019-11-26 03:00:00 14.1 7 Oeste 12 Noroeste 0 1011.5 -0.9 71
2019-11-26 02:00:00 13.3 6 Noroeste 13 Oeste 0 1011.9 -0.2 78
2019-11-26 01:00:00 13.1 8 Oeste 11 Oeste 0 1012 -0.2 75
2019-11-26 00:00:00 12.5 5 Norte 9 Noroeste 0 1012.4 0.7 76
2019-11-25 23:00:00 13.2 6 Noroeste 10 Norte 0 1012.1 0.8 75
2019-11-25 22:00:00 12.6 9 Norte 12 Norte 0 1012.2 1.6 77
2019-11-25 21:00:00 12.8 9 Norte 11 Norte 0 1011.7 1.6 79
2019-11-25 20:00:00 13.7 7 Norte 9 Norte 0 1011.3 1.8 85
2019-11-25 19:00:00 14.8 7 Norte 8 Norte 0 1010.6 1.8 81
2019-11-25 18:00:00 16.6 4 Este 16 Norte 0 1010.1 1.8 74
2019-11-25 17:00:00 17.2 6 Noroeste 22 Oeste 0 1009.5 1.5 75
2019-11-25 16:00:00 18.5 12 Oeste 22 Oeste 0 1008.8 0.5 68
2019-11-25 15:00:00 19.8 12 Noroeste 24 Noroeste 0 1008.3 -0.8 62
2019-11-25 14:00:00 19.6 10 Noroeste 32 Oeste 0 1008 -1.5 60
2019-11-25 13:00:00 18.8 16 Oeste 40 Oeste 0 1008.3 -1.1 66
2019-11-25 12:00:00 18.7 18 Oeste 31 Oeste 0 1009.1 -0.1 66
2019-11-25 11:00:00 17.5 9 Noroeste 22 Oeste 0 1009.5 0.7 63
2019-11-25 10:00:00 16.5 12 Oeste 32 Noroeste 0 1009.4 0.8 64
2019-11-25 09:00:00 14.4 11 Oeste 22 Noroeste 0 1009.2 1.1 75
2019-11-25 08:00:00 13.3 11 Oeste 24 Noroeste 0 1008.8 1.1 79
2019-11-25 07:00:00 12.9 11 Noroeste 21 Oeste 0 1008.6 0.1 74
2019-11-25 06:00:00 12.5 13 Oeste 21 Oeste 0 1008.1 -0.8 69
2019-11-25 05:00:00 11.9 10 Noroeste 20 Noroeste 0 1007.7 -1.3 72
2019-11-25 04:00:00 12.3 10 Noroeste 20 Noroeste 0 1008.5 -0.6 69
2019-11-25 03:00:00 12.1 10 Noroeste 23 Noroeste 0 1008.9 -0.2 69
2019-11-25 02:00:00 12.1 6 Sudoeste 18 Oeste 0 1009 0.3 76
2019-11-25 01:00:00 12.3 10 Oeste 18 Oeste 0 1009.1 0.2 74
2019-11-25 00:00:00 12.8 11 Sudoeste 21 Sudoeste 0 1009.1 -0.2 74
2019-11-24 23:00:00 12.8 6 Oeste 18 Sudoeste 0 1008.7 -0.4 73
2019-11-24 22:00:00 13 12 Sudoeste 22 Noroeste 0 1008.9 0.2 75
2019-11-24 21:00:00 12.6 9 Noroeste 22 Norte 0 1009.3 1 71
2019-11-24 20:00:00 12.3 4 Noroeste 14 Noroeste 0 1009.1 1.5 71
2019-11-24 19:00:00 12.7 6 Noroeste 22 Noroeste 0 1008.7 1.6 70
2019-11-24 18:00:00 13.3 9 Noroeste 19 Noroeste 0 1008.3 1.9 65
2019-11-24 17:00:00 14.9 10 Noroeste 23 Noroeste 0 1007.6 1.7 59
2019-11-24 16:00:00 16.6 10 Noroeste 26 Norte 0 1007.1 1.1 53
2019-11-24 15:00:00 16.9 14 Noroeste 30 Oeste 0 1006.4 0.3 53
2019-11-24 14:00:00 16.8 17 Noroeste 33 Noroeste 0 1005.9 -0.5 55
2019-11-24 13:00:00 16.6 17 Noroeste 35 Noroeste 0 1006 0.1 55
2019-11-24 12:00:00 16.3 14 Noroeste 33 Noroeste 0 1006.1 1.2 54
2019-11-24 11:00:00 15.9 11 Noroeste 32 Noroeste 0 1006.4 1.9 56
2019-11-24 10:00:00 15 13 Oeste 29 Oeste 0 1005.9 2.3 60
2019-11-24 09:00:00 13.6 18 Noroeste 35 Noroeste 0 1004.9 2.1 63
2019-11-24 08:00:00 12.8 15 Noroeste 31 Noroeste 0 1004.5 2.4 65
2019-11-24 07:00:00 12.6 13 Noroeste 28 Noroeste 0 1003.6 2.1 65
2019-11-24 06:00:00 12.7 15 Noroeste 29 Noroeste 0 1002.8 1.9 66
2019-11-24 05:00:00 12.9 15 Noroeste 31 Noroeste 0 1002.1 1.5 65
2019-11-24 04:00:00 13.3 15 Noroeste 39 Noroeste 0 1001.5 0.7 64
2019-11-24 03:00:00 13.4 13 Noroeste 29 Noroeste 0 1000.9 0.5 64
2019-11-24 02:00:00 13.8 13 Noroeste 38 Noroeste 0 1000.6 1.2 62
2019-11-24 01:00:00 13.8 13 Noroeste 30 Noroeste 0 1000.8 2.3 61
2019-11-24 00:00:00 14 11 Noroeste 35 Noroeste 0 1000.4 2.4 59
2019-11-23 23:00:00 14.3 14 Noroeste 39 Noroeste 0 999.4 2.1 59
2019-11-23 22:00:00 14.2 18 Noroeste 43 Noroeste 0 998.5 2 58
2019-11-23 21:00:00 13.8 14 Oeste 35 Noroeste 0 998 2.3 62
2019-11-23 20:00:00 13.8 17 Noroeste 42 Noroeste 0 997.3 2.8 59
2019-11-23 19:00:00 13.5 15 Noroeste 28 Noroeste 0 996.5 3.2 67
2019-11-23 18:00:00 13.1 12 Noroeste 44 Noroeste 0 995.7 2.8 68
2019-11-23 17:00:00 13.3 12 Oeste 41 Noroeste 0 994.5 2.1 71
2019-11-23 16:00:00 14 15 Oeste 35 Oeste 0.6 993.3 1.6 82
2019-11-23 15:00:00 12.9 19 Oeste 38 Oeste 0.2 992.9 1.4 86
2019-11-23 14:00:00 11.9 12 Noroeste 56 Noroeste 2.8 992.4 0.6 84
2019-11-23 13:00:00 14.6 23 Oeste 66 Oeste 1.2 991.7 0.9 75
2019-11-23 12:00:00 16 27 Oeste 60 Oeste 0 991.5 0.8 64
2019-11-23 11:00:00 15.2 24 Oeste 55 Oeste 0 991.8 1.3 66
2019-11-23 10:00:00 14.8 29 Oeste 50 Noroeste 0.6 990.8 0.1 72
2019-11-23 09:00:00 15.3 13 Oeste 28 Oeste 0 990.7 0.3 83
2019-11-23 08:00:00 15.4 15 Sudoeste 28 Oeste 0 990.5 0.1 89
2019-11-23 07:00:00 15.2 13 Oeste 26 Sudoeste 0 990.7 0.3 87
2019-11-23 06:00:00 15.7 15 Oeste 40 Oeste 0 990.4 -0.8 89
2019-11-23 05:00:00 16.5 24 Oeste 46 Oeste 0 990.4 -1.3 90
2019-11-23 04:00:00 16.9 33 Sudoeste 58 Sudoeste 0 990.4 -2.9 91
2019-11-23 03:00:00 16.7 32 Sudoeste 66 Sudoeste 0.8 991.2 -3.3 93
2019-11-23 02:00:00 16.4 49 Sudoeste 65 Sudoeste 1.6 991.7 -3.1 94
2019-11-23 01:00:00 15.8 42 Sudoeste 69 Sudoeste 9.4 993.3 -3.4 95
2019-11-23 00:00:00 15.5 53 Sudoeste 79 Sudoeste 9.4 994.5 -3.2 94
2019-11-22 23:00:00 15.9 61 Sudoeste 79 Sudoeste 3.6 994.8 -3.7 93
2019-11-22 22:00:00 15.6 50 Sudoeste 72 Sudoeste 4.2 996.7 -2.2 92
2019-11-22 21:00:00 16.7 44 Sudoeste 63 Sudoeste 0.2 997.7 -1.7 86
2019-11-22 20:00:00 16.9 38 Sudoeste 58 Sudoeste 0 998.5 -1 83
2019-11-22 19:00:00 17 46 Sudoeste 59 Sudoeste 0 998.9 -1.3 82
2019-11-22 18:00:00 17 37 Sudoeste 53 Sudoeste 0 999.4 -1.1 85
2019-11-22 17:00:00 17.2 37 Sudoeste 49 Sudoeste 0 999.5 -2 84
2019-11-22 16:00:00 17.1 35 Sudoeste 49 Sudoeste 0 1000.2 -2.1 83
2019-11-22 15:00:00 17.6 33 Sudoeste 53 Sudoeste 0 1000.5 -2.7 79
2019-11-22 14:00:00 17.1 39 Sudoeste 52 Sudoeste 0 1001.5 -2.6 83
2019-11-22 13:00:00 17.4 35 Sudoeste 55 Sudoeste 1.2 1002.3 -2.3 84
2019-11-22 12:00:00 17.5 39 Sudoeste 50 Sudoeste 0.4 1003.2 -1.6 84
2019-11-22 11:00:00 17 32 Sudoeste 45 Sudoeste 2.2 1004.1 -0.7 89
2019-11-22 10:00:00 14.1 10 Oeste 26 Noroeste 3.4 1004.6 -0.2 94
2019-11-22 09:00:00 13.3 4 Norte 17 Norte 37.2 1004.8 0 95
2019-11-22 08:00:00 13.9 5 Oeste 31 Sudoeste 3.2 1004.8 -0.5 93
2019-11-22 07:00:00 14 17 Sur 23 Sur 2.6 1004.8 -1 93
2019-11-22 06:00:00 14 6 Sudoeste 10 Sudoeste 4.8 1004.8 -1.3 94
2019-11-22 05:00:00 14.2 5 Oeste 10 Norte 4 1005.3 -1.1 93
2019-11-22 04:00:00 14.2 5 Norte 30 Sudoeste 3.2 1005.8 -0.9 92
2019-11-22 03:00:00 15.2 14 Sudoeste 25 Sudoeste 0.2 1006.1 -1 89
2019-11-22 02:00:00 14.6 8 Oeste 13 Oeste 0 1006.4 -0.8 82
2019-11-22 01:00:00 14.2 8 Oeste 17 Oeste 0 1006.7 -0.9 82
2019-11-22 00:00:00 14.7 13 Oeste 20 Oeste 0 1007.1 -0.5 79
2019-11-21 23:00:00 14.1 10 Oeste 16 Oeste 0 1007.2 -0.4 78
2019-11-21 22:00:00 13.9 11 Oeste 18 Sudoeste 0 1007.6 0.4 76
2019-11-21 21:00:00 13.7 9 Oeste 17 Oeste 0 1007.6 0.6 76
2019-11-21 20:00:00 13.6 8 Noroeste 15 Noroeste 0 1007.6 1 74
2019-11-21 19:00:00 13.6 9 Oeste 15 Oeste 0 1007.2 0.9 74
2019-11-21 18:00:00 13.9 10 Oeste 18 Oeste 0 1007 1 73
2019-11-21 17:00:00 14.6 11 Oeste 26 Oeste 0 1006.6 0.4 70
2019-11-21 16:00:00 15.2 14 Oeste 36 Oeste 0 1006.3 -0.1 65
2019-11-21 15:00:00 16 18 Oeste 40 Oeste 0 1006 -1 62
2019-11-21 14:00:00 16.4 21 Oeste 36 Oeste 0 1006.2 -1 62
2019-11-21 13:00:00 17 22 Oeste 37 Oeste 0 1006.4 -0.6 61
2019-11-21 12:00:00 16.5 18 Oeste 35 Oeste 0 1007 0.2 64
2019-11-21 11:00:00 16.3 17 Sudoeste 29 Sudoeste 0 1007.2 0.8 73
2019-11-21 10:00:00 14.9 8 Oeste 18 Oeste 0 1007 0.8 76
2019-11-21 09:00:00 12.9 13 Oeste 17 Oeste 0 1006.8 0.8 81
2019-11-21 08:00:00 11.1 5 Noroeste 13 Oeste 0 1006.4 0 88
2019-11-21 07:00:00 11.4 6 Noroeste 16 Oeste 0 1006.2 -0.2 89
2019-11-21 06:00:00 11.7 10 Oeste 17 Oeste 0 1006 -0.6 91
2019-11-21 05:00:00 11 8 Oeste 29 Oeste 0.8 1006.4 -0.3 90
2019-11-21 04:00:00 11.9 21 Oeste 32 Oeste 0.6 1006.4 -0.8 88
2019-11-21 03:00:00 12.1 16 Oeste 32 Sudoeste 0 1006.6 -1.2 83
2019-11-21 02:00:00 11.5 8 Noroeste 15 Noroeste 0 1006.7 -1.3 87
2019-11-21 01:00:00 11.9 7 Noroeste 14 Oeste 0 1007.2 -1.1 84
2019-11-21 00:00:00 12 10 Oeste 17 Oeste 0 1007.8 -0.6 84
2019-11-20 23:00:00 11.5 11 Oeste 16 Oeste 0 1008 -0.7 88
2019-11-20 22:00:00 10.7 6 Oeste 8 Oeste 0 1008.3 -0.3 91
2019-11-20 21:00:00 10.4 4 Oeste 9 Norte 0 1008.4 0.3 92
2019-11-20 20:00:00 11.4 4 Norte 26 Sudoeste 2.2 1008.7 0.2 90
2019-11-20 19:00:00 12.5 14 Oeste 40 Sudoeste 3 1008.6 -0.1 85
2019-11-20 18:00:00 14.5 27 Sur 33 Sur 0 1008.1 -0.8 77
2019-11-20 17:00:00 14.6 22 Sudoeste 30 Sudoeste 0 1008.5 -1 74
2019-11-20 16:00:00 13.8 3 Oeste 17 Sudoeste 0 1008.7 -1.5 80
2019-11-20 15:00:00 14 16 Sudoeste 28 Sudoeste 0 1008.9 -2 78
2019-11-20 14:00:00 14.6 17 Sur 22 Sudoeste 0 1009.5 -2 73
2019-11-20 13:00:00 13.5 18 Sudoeste 30 Sudoeste 0 1010.2 -1.5 77
2019-11-20 12:00:00 13.1 5 Norte 8 Norte 0 1010.9 -0.8 76
2019-11-20 11:00:00 12.4 7 Norte 10 Norte 0 1011.5 0.1 72
2019-11-20 10:00:00 10.8 8 Norte 11 Norte 0 1011.7 0.4 76
2019-11-20 09:00:00 9.7 10 Norte 13 Norte 0 1011.7 0.2 72
2019-11-20 08:00:00 7.2 12 Norte 13 Norte 0 1011.4 -0.3 80
2019-11-20 07:00:00 6.5 10 Norte 11 Norte 0 1011.3 -0.9 84
2019-11-20 06:00:00 6.5 10 Norte 10 Norte 0 1011.5 -1 83
2019-11-20 05:00:00 7.1 9 Norte 9 Norte 0 1011.7 -1 80
2019-11-20 04:00:00 7.2 8 Norte 10 Norte 0 1012.2 -1 81
2019-11-20 03:00:00 7.7 9 Norte 11 Norte 0 1012.5 -1 72
2019-11-20 02:00:00 7.3 9 Norte 11 Norte 0 1012.7 -1.1 77
2019-11-20 01:00:00 8.1 10 Norte 14 Norte 0 1013.2 -0.5 69
2019-11-20 00:00:00 8.1 9 Norte 13 Norte 0 1013.5 -0.1 70
2019-11-19 23:00:00 8.1 10 Norte 12 Norte 0 1013.8 0.3 72
2019-11-19 22:00:00 8.1 10 Norte 12 Norte 0 1013.7 0.3 73
2019-11-19 21:00:00 8.4 9 Norte 13 Norte 0 1013.6 0.4 73
2019-11-19 20:00:00 10.1 7 Norte 10 Noroeste 0 1013.5 0.4 75
2019-11-19 19:00:00 10.7 8 Noroeste 13 Oeste 0 1013.4 0.5 71
2019-11-19 18:00:00 12.7 9 Oeste 13 Oeste 0 1013.2 0.2 67
2019-11-19 17:00:00 14.1 6 Oeste 19 Oeste 0 1013.1 -0.1 63
2019-11-19 16:00:00 15.8 9 Sudoeste 16 Sudoeste 0 1012.9 -0.5 57
2019-11-19 15:00:00 15.7 4 Noroeste 23 Noroeste 0 1013 -0.9 56
2019-11-19 14:00:00 14.2 10 Noroeste 24 Noroeste 0 1013.2 -0.9 62
2019-11-19 13:00:00 15.9 9 Oeste 24 Oeste 0 1013.4 -0.9 56
2019-11-19 12:00:00 14.7 12 Noroeste 21 Noroeste 0 1013.9 -0.1 55
2019-11-19 11:00:00 15.1 9 Sudoeste 17 Sudoeste 0 1014.1 0.6 62
2019-11-19 10:00:00 13.5 7 Sudoeste 12 Sudoeste 0 1014.3 1.3 64
2019-11-19 09:00:00 10.6 5 Noroeste 11 Noroeste 0 1014 1.3 77
2019-11-19 08:00:00 8.6 8 Norte 14 Noroeste 0 1013.5 0.8 81
2019-11-19 07:00:00 8.4 7 Norte 14 Noroeste 0 1013 0.6 85
2019-11-19 06:00:00 9 8 Norte 15 Noroeste 0 1012.7 0.5 81
2019-11-19 05:00:00 9.1 7 Noroeste 12 Noroeste 0 1012.7 0.5 82
2019-11-19 04:00:00 9 8 Norte 16 Norte 0 1012.4 0.2 80
2019-11-19 03:00:00 10 10 Norte 20 Noroeste 0 1012.2 0.5 78
2019-11-19 02:00:00 10.5 10 Norte 18 Norte 0 1012.2 1 80
2019-11-19 01:00:00 10.7 8 Noroeste 15 Norte 0.2 1012.2 1.6 78
2019-11-19 00:00:00 10.1 9 Norte 16 Norte 0 1011.7 1.6 72
2019-11-18 23:00:00 10 9 Norte 21 Nordeste 0 1011.2 1.9 71
2019-11-18 22:00:00 10.6 13 Norte 23 Norte 0 1010.6 2.3 70
2019-11-18 21:00:00 11 12 Norte 25 Norte 0 1010.1 2.6 70
2019-11-18 20:00:00 11.6 14 Norte 35 Norte 0 1009.3 2.6 70
2019-11-18 19:00:00 11.9 17 Norte 31 Norte 0 1008.3 2.4 73
2019-11-18 18:00:00 11.9 16 Norte 33 Nordeste 0 1007.5 2.4 71
2019-11-18 17:00:00 12.4 19 Nordeste 36 Norte 0 1006.7 1.9 73
2019-11-18 16:00:00 12.7 13 Norte 34 Norte 0.2 1005.9 1.3 86
2019-11-18 15:00:00 13.1 20 Norte 45 Nordeste 0 1005.1 0.5 77
2019-11-18 14:00:00 13.6 21 Norte 40 Norte 0 1004.8 0.2 74
2019-11-18 13:00:00 14.2 11 Norte 22 Norte 0 1004.6 0.4 74
2019-11-18 12:00:00 13.7 10 Norte 17 Norte 0 1004.6 0.2 78
2019-11-18 11:00:00 13.1 9 Norte 23 Nordeste 0 1004.6 1.2 84
2019-11-18 10:00:00 12.3 12 Norte 21 Norte 0 1004.2 0.7 88
2019-11-18 09:00:00 12 12 Norte 22 Norte 0 1004.4 0.9 89
2019-11-18 08:00:00 12 6 Norte 20 Norte 0 1003.4 -0.2 88
2019-11-18 07:00:00 12.6 8 Noroeste 17 Noroeste 0 1003.5 -0.7 86
2019-11-18 06:00:00 13 9 Oeste 15 Oeste 0 1003.5 -1.2 88
2019-11-18 05:00:00 12.7 7 Noroeste 17 Oeste 0.2 1003.6 -1.3 90
2019-11-18 04:00:00 12.9 9 Oeste 18 Noroeste 0.2 1004.2 -1.7 88
2019-11-18 03:00:00 13 7 Noroeste 21 Oeste 0.4 1004.7 -1.5 88
2019-11-18 02:00:00 13.1 9 Noroeste 26 Noroeste 0.8 1004.9 -2 88
2019-11-18 01:00:00 13.9 12 Noroeste 22 Oeste 0.2 1005.9 -1.9 76
2019-11-18 00:00:00 14 12 Oeste 18 Oeste 0 1006.2 -1.8 67
2019-11-17 23:00:00 14.2 9 Oeste 19 Oeste 0 1006.9 -1.3 67
2019-11-17 22:00:00 13.3 8 Oeste 17 Oeste 0 1007.8 -0.4 69
2019-11-17 21:00:00 13.7 10 Oeste 19 Oeste 0 1008 -0.1 68
2019-11-17 20:00:00 13.4 14 Oeste 25 Oeste 0 1008.2 0 67
2019-11-17 19:00:00 12.7 12 Oeste 22 Oeste 0 1008.2 0.2 66
2019-11-17 18:00:00 13.2 13 Oeste 27 Noroeste 0 1008.1 -0.1 65
2019-11-17 17:00:00 14.5 14 Oeste 38 Noroeste 0 1008.2 0 54
2019-11-17 16:00:00 15.5 17 Oeste 41 Oeste 0 1008 -0.5 54
2019-11-17 15:00:00 15.5 18 Noroeste 44 Oeste 0 1008.2 -0.6 54
2019-11-17 14:00:00 14.6 24 Oeste 48 Oeste 0 1008.2 -1 56
2019-11-17 13:00:00 15.1 28 Oeste 42 Oeste 0 1008.5 -0.4 54
2019-11-17 12:00:00 15.6 21 Oeste 44 Oeste 0 1008.8 0 48
2019-11-17 11:00:00 15.5 18 Noroeste 34 Noroeste 0 1009.2 0.8 48
2019-11-17 10:00:00 14.8 12 Oeste 26 Noroeste 0 1008.9 0.7 50
2019-11-17 09:00:00 13.2 10 Noroeste 22 Noroeste 0 1008.8 0.5 58
2019-11-17 08:00:00 10.4 10 Noroeste 18 Noroeste 0 1008.4 0.5 65
2019-11-17 07:00:00 10.2 3 Noroeste 19 Sudoeste 0 1008.2 0.4 65
2019-11-17 06:00:00 10.8 6 Sudoeste 23 Noroeste 0 1008.3 0.7 63
2019-11-17 05:00:00 11.6 13 Noroeste 27 Noroeste 0 1007.9 0 56
2019-11-17 04:00:00 11.8 11 Noroeste 33 Noroeste 0 1007.8 -0.1 56
2019-11-17 03:00:00 11.7 11 Noroeste 30 Noroeste 0 1007.6 -1 60
2019-11-17 02:00:00 11.5 14 Noroeste 33 Noroeste 0 1007.9 -0.6 66
2019-11-17 01:00:00 10.3 6 Oeste 16 Noroeste 0 1007.9 -0.6 68
2019-11-17 00:00:00 9.4 6 Noroeste 14 Oeste 0 1008.6 0.2 75
2019-11-16 23:00:00 9.2 6 Noroeste 13 Noroeste 0 1008.5 0.2 81
2019-11-16 22:00:00 10.1 8 Noroeste 15 Norte 0 1008.5 0.7 77
2019-11-16 21:00:00 10.4 13 Norte 26 Norte 0 1008.4 1.5 79
2019-11-16 20:00:00 10.7 15 Norte 24 Norte 0 1008.3 1.9 77
2019-11-16 19:00:00 11.2 15 Norte 27 Norte 0 1007.8 1.9 77
2019-11-16 18:00:00 10.9 12 Norte 23 Noroeste 0 1006.9 1.2 77
2019-11-16 17:00:00 11.7 13 Norte 28 Norte 0 1006.4 0.4 72
2019-11-16 16:00:00 12.2 14 Norte 33 Norte 0 1005.9 -0.3 70
2019-11-16 15:00:00 12.2 22 Norte 39 Noroeste 0 1005.7 -1.1 69
2019-11-16 14:00:00 12.7 8 Noroeste 18 Norte 0 1006 -1 69
2019-11-16 13:00:00 12.2 9 Noroeste 40 Este 0 1006.2 -0.2 66
2019-11-16 12:00:00 12.2 6 Sudoeste 26 Este 0 1006.8 0.8 66
2019-11-16 11:00:00 11.2 10 Norte 15 Norte 0 1007 1.5 74
2019-11-16 10:00:00 11.6 10 Norte 17 Norte 0 1006.4 1.2 68
2019-11-16 09:00:00 12.6 9 Nordeste 28 Este 0 1006 1.3 59
2019-11-16 08:00:00 12.9 14 Nordeste 33 Sudeste 0 1005.5 1.7 51
2019-11-16 07:00:00 12.7 11 Sudeste 23 Sudeste 0 1005.2 0.8 60
2019-11-16 06:00:00 10 8 Este 23 Norte 0 1004.7 0.6 74
2019-11-16 05:00:00 9 18 Norte 28 Noroeste 0 1003.8 -0.1 72
2019-11-16 04:00:00 9.6 18 Norte 35 Norte 0 1004.4 0.9 69
2019-11-16 03:00:00 9.6 9 Norte 14 Norte 0 1004.1 0.6 68
2019-11-16 02:00:00 10.7 5 Noroeste 10 Noroeste 0 1003.9 0.3 69
2019-11-16 01:00:00 9.7 8 Noroeste 13 Noroeste 0 1003.5 0.2 71
2019-11-16 00:00:00 9.5 6 Noroeste 14 Noroeste 0 1003.5 0.8 67
2019-11-15 23:00:00 9.9 8 Noroeste 15 Noroeste 0 1003.6 1.3 69
2019-11-15 22:00:00 9 6 Noroeste 11 Noroeste 0 1003.3 1.6 83
2019-11-15 21:00:00 10 5 Noroeste 11 Oeste 0 1002.7 1.8 78
2019-11-15 20:00:00 11.1 5 Oeste 11 Noroeste 0 1002.3 1.8 72
2019-11-15 19:00:00 11 6 Noroeste 21 Noroeste 0 1001.7 1.7 68
2019-11-15 18:00:00 11.5 12 Noroeste 28 Oeste 0 1000.9 1.4 66
2019-11-15 17:00:00 13.1 13 Oeste 30 Oeste 0 1000.5 1.4 61
2019-11-15 16:00:00 14.4 15 Oeste 30 Oeste 0 1000 1 55
2019-11-15 15:00:00 14.5 16 Oeste 29 Oeste 0 999.5 0.2 56
2019-11-15 14:00:00 14.3 16 Oeste 27 Oeste 0 999.1 -0.5 54
2019-11-15 13:00:00 14.8 10 Noroeste 31 Noroeste 0 999 0.2 55
2019-11-15 12:00:00 13.7 12 Noroeste 27 Oeste 0 999.3 1.4 63
2019-11-15 11:00:00 11.4 8 Oeste 39 Oeste 0.2 999.6 2.3 80
2019-11-15 10:00:00 12.5 13 Noroeste 29 Noroeste 0 998.8 1.4 67
2019-11-15 09:00:00 12.5 19 Oeste 35 Oeste 0 997.9 0.6 67
2019-11-15 08:00:00 12.3 24 Oeste 35 Oeste 0 997.3 -0.1 65
2019-11-15 07:00:00 12.3 22 Oeste 36 Oeste 0 997.4 -0.2 64
2019-11-15 06:00:00 11.4 18 Oeste 30 Oeste 0.2 997.3 -0.8 73
2019-11-15 05:00:00 11.2 18 Oeste 28 Oeste 0 997.4 -1.1 73
2019-11-15 04:00:00 10.9 12 Oeste 19 Oeste 0 997.6 -0.7 75
2019-11-15 03:00:00 9.8 5 Noroeste 27 Sudoeste 1.2 998.1 -0.2 82
2019-11-15 02:00:00 9.4 5 Oeste 8 Oeste 0 998.5 0.3 90
2019-11-15 01:00:00 10 4 Noroeste 9 Norte 0 998.3 0.2 90
2019-11-15 00:00:00 9.5 8 Norte 10 Norte 0 998.3 0.8 89
2019-11-14 23:00:00 9.9 7 Norte 24 Norte 0.6 998.2 0.9 85
2019-11-14 22:00:00 11.8 12 Norte 20 Norte 0 998.1 1.1 78
2019-11-14 21:00:00 13 6 Oeste 22 Oeste 0 997.5 1.5 77
2019-11-14 20:00:00 12.8 15 Oeste 31 Oeste 0 997.3 1.8 71
2019-11-14 19:00:00 13.3 16 Noroeste 38 Noroeste 0 997 1.6 71
2019-11-14 18:00:00 13 12 Noroeste 41 Noroeste 0 996 0.8 78
2019-11-14 17:00:00 15 20 Noroeste 40 Noroeste 0 995.5 0 67
2019-11-14 16:00:00 16 12 Noroeste 37 Oeste 0 995.4 -1 65
2019-11-14 15:00:00 17 17 Oeste 47 Sudoeste 0 995.2 -2.6 71
2019-11-14 14:00:00 17.9 24 Sudoeste 63 Sudoeste 0 995.5 -3.6 81
2019-11-14 13:00:00 18.2 28 Sudoeste 61 Sudoeste 0 996.4 -3.5 76
2019-11-14 12:00:00 18.1 32 Sudoeste 62 Sudoeste 0 997.8 -2.7 79
2019-11-14 11:00:00 18.1 31 Sudoeste 57 Sudoeste 0 999.1 -2 80
2019-11-14 10:00:00 18 44 Sudoeste 59 Sudoeste 0 999.9 -2.4 84
2019-11-14 09:00:00 17.8 40 Sudoeste 60 Sudoeste 0 1000.5 -2.3 84
2019-11-14 08:00:00 17.1 41 Sudoeste 57 Sudoeste 0 1001.1 -2.8 79
2019-11-14 07:00:00 15.9 31 Sudoeste 43 Sudoeste 0 1002.3 -3.1 76
2019-11-14 06:00:00 14 16 Oeste 30 Sudoeste 0 1002.8 -3.2 80
2019-11-14 05:00:00 13.3 14 Oeste 22 Oeste 0 1003.9 -2.9 83
2019-11-14 04:00:00 12.8 14 Oeste 24 Oeste 0 1005.4 -2.6 84
2019-11-14 03:00:00 12.6 13 Sudoeste 21 Sudoeste 0 1006 -1.9 85
2019-11-14 02:00:00 12.1 9 Oeste 15 Oeste 0 1006.8 -2.1 84
2019-11-14 01:00:00 10.7 7 Noroeste 12 Oeste 0 1008 -0.7 89
2019-11-14 00:00:00 10.6 5 Norte 9 Norte 0 1007.9 -0.5 90
2019-11-13 23:00:00 10.9 7 Norte 12 Noroeste 0 1008.9 0.9 88
2019-11-13 22:00:00 11.2 7 Noroeste 11 Norte 0 1008.7 1.5 89
2019-11-13 21:00:00 11.3 8 Norte 16 Norte 0 1008.4 2.1 88
2019-11-13 20:00:00 11.7 12 Norte 20 Norte 0 1008 2.7 86
2019-11-13 19:00:00 12.4 8 Norte 14 Norte 0 1007.2 2.9 84
2019-11-13 18:00:00 12.8 10 Norte 21 Norte 0 1006.3 2.8 83
2019-11-13 17:00:00 13 11 Norte 24 Norte 0 1005.3 2.2 83
2019-11-13 16:00:00 13.2 15 Nordeste 27 Nordeste 0 1004.3 1.1 81
2019-11-13 15:00:00 13.4 11 Norte 21 Nordeste 0 1003.5 0.1 87
2019-11-13 14:00:00 13.4 12 Nordeste 22 Nordeste 0 1003.1 -0.1 88
2019-11-13 13:00:00 12.9 8 Norte 13 Norte 0.4 1003.2 0 91
2019-11-13 12:00:00 13.3 6 Nordeste 10 Norte 1.4 1003.4 0.4 92
2019-11-13 11:00:00 13.5 0 Calma 12 Noroeste 1.8 1003.2 0.4 86
2019-11-13 10:00:00 13.4 7 Noroeste 14 Oeste 1 1003.2 0.5 83
2019-11-13 09:00:00 13.1 2 Noroeste 7 Norte 0 1003 0.2 72
2019-11-13 08:00:00 13 3 Noroeste 9 Norte 0 1002.8 -0.2 75
2019-11-13 07:00:00 12.6 6 Norte 7 Norte 0 1002.7 -0.1 76
2019-11-13 06:00:00 13 4 Norte 9 Oeste 0 1002.8 -0.8 74
2019-11-13 05:00:00 12.7 5 Noroeste 10 Noroeste 0 1003 -1.4 68
2019-11-13 04:00:00 12.4 4 Noroeste 15 Norte 0 1002.8 -2 66
2019-11-13 03:00:00 12.7 6 Noroeste 13 Noroeste 0 1003.6 -1.5 66
2019-11-13 02:00:00 12.7 5 Noroeste 19 Noroeste 0 1004.4 -1.1 65
2019-11-13 01:00:00 13.5 9 Noroeste 22 Noroeste 0 1004.8 -0.9 66
2019-11-13 00:00:00 13.8 10 Noroeste 22 Noroeste 0 1005.1 -0.4 65
2019-11-12 23:00:00 13.4 9 Oeste 32 Noroeste 0 1005.5 0.1 66
2019-11-12 22:00:00 12.6 14 Oeste 26 Oeste 0 1005.7 0.1 70
2019-11-12 21:00:00 13 17 Oeste 25 Oeste 0 1005.5 -0.2 68
2019-11-12 20:00:00 13.4 11 Oeste 27 Sudoeste 0 1005.4 0.1 65
2019-11-12 19:00:00 13.9 14 Sudoeste 24 Sudoeste 0 1005.6 0.5 68
2019-11-12 18:00:00 14.3 16 Oeste 26 Oeste 0 1005.7 0.8 60
2019-11-12 17:00:00 16.3 7 Oeste 21 Noroeste 0 1005.3 -0.2 51
2019-11-12 16:00:00 17.4 10 Noroeste 30 Oeste 0 1005.1 -0.8 48
2019-11-12 15:00:00 17.9 11 Noroeste 26 Noroeste 0 1004.9 -1.8 47
2019-11-12 14:00:00 16.8 10 Noroeste 26 Noroeste 0 1005.5 -1.9 56
2019-11-12 13:00:00 16.2 10 Noroeste 23 Noroeste 0 1005.9 -1.7 56
2019-11-12 12:00:00 15.9 10 Norte 22 Norte 0 1006.7 -1.2 57
2019-11-12 11:00:00 16.1 9 Nordeste 24 Nordeste 0 1007.4 0.2 55
2019-11-12 10:00:00 15 13 Nordeste 24 Nordeste 0 1007.6 1 60
2019-11-12 09:00:00 13.3 9 Norte 23 Norte 0 1007.9 1.4 70
2019-11-12 08:00:00 11.8 13 Norte 21 Nordeste 0 1007.2 0.6 72
2019-11-12 07:00:00 10.9 10 Norte 15 Norte 0 1006.6 0 80
2019-11-12 06:00:00 11.2 8 Norte 23 Norte 0 1006.5 -0.4 84
2019-11-12 05:00:00 11.4 16 Norte 24 Norte 0 1006.6 -0.7 75
2019-11-12 04:00:00 11.2 10 Norte 12 Norte 0 1006.6 -0.7 69
2019-11-12 03:00:00 10.8 8 Norte 15 Noroeste 0 1006.9 -0.6 70
2019-11-12 02:00:00 12.5 9 Norte 19 Noroeste 0 1007.3 0 68
2019-11-12 01:00:00 12 12 Norte 19 Norte 0 1007.3 0 73
2019-11-12 00:00:00 11.6 13 Norte 17 Norte 0 1007.5 0.6 77
2019-11-11 23:00:00 12.3 10 Norte 22 Norte 0 1007.3 0.7 74
2019-11-11 22:00:00 12.2 14 Norte 24 Norte 0 1007.3 0.8 77
2019-11-11 21:00:00 12.2 14 Norte 22 Noroeste 0 1006.9 0.7 79
2019-11-11 20:00:00 12.8 11 Norte 28 Norte 0 1006.6 0.8 81
2019-11-11 19:00:00 12.8 16 Norte 41 Norte 0 1006.5 1 81
2019-11-11 18:00:00 12.5 24 Norte 37 Norte 0 1006.2 0.8 86
2019-11-11 17:00:00 12.4 18 Norte 37 Norte 0 1005.8 0.5 86
2019-11-11 16:00:00 14.2 15 Norte 43 Norte 0 1005.5 -0.2 70
2019-11-11 15:00:00 14.1 23 Norte 50 Norte 0 1005.4 -1 69
2019-11-11 14:00:00 13.9 27 Norte 47 Norte 0 1005.3 -1.1 72
2019-11-11 13:00:00 14.2 27 Norte 50 Norte 0 1005.7 -0.3 70
2019-11-11 12:00:00 14 29 Norte 53 Nordeste 0.2 1006.4 0.3 66
2019-11-11 11:00:00 12.9 26 Norte 57 Norte 0 1006.4 0.4 68
2019-11-11 10:00:00 12.3 28 Norte 57 Norte 0 1006 0.7 76
2019-11-11 09:00:00 11.4 30 Norte 52 Norte 0 1006.1 0.8 74
2019-11-11 08:00:00 10.8 24 Norte 39 Norte 0.2 1006 0.5 77
2019-11-11 07:00:00 10.4 18 Norte 58 Norte 4.8 1005.3 -0.6 84
2019-11-11 06:00:00 11.1 30 Norte 62 Norte 0.8 1005.3 -1.3 71
2019-11-11 05:00:00 11.3 23 Noroeste 39 Noroeste 0.2 1005.5 -1.2 78
2019-11-11 04:00:00 12.3 15 Noroeste 34 Norte 0 1005.9 -0.9 63
2019-11-11 03:00:00 12.1 18 Norte 41 Norte 0.2 1006.6 -0.3 68
2019-11-11 02:00:00 12.6 20 Norte 51 Norte 0 1006.7 -0.5 54
2019-11-11 01:00:00 12.5 22 Norte 39 Norte 0 1006.8 -0.1 47
2019-11-11 00:00:00 11.5 18 Norte 28 Norte 0 1006.9 0 68
2019-11-10 23:00:00 10.7 18 Noroeste 27 Noroeste 0 1007.2 0.5 76
2019-11-10 22:00:00 10.9 12 Noroeste 22 Norte 0 1006.9 0.3 73
2019-11-10 21:00:00 10.8 12 Norte 20 Norte 0 1006.9 0.9 73
2019-11-10 20:00:00 10.9 14 Norte 21 Norte 0 1006.7 1 78
2019-11-10 19:00:00 9.9 5 Noroeste 16 Nordeste 0 1006.6 1.6 82
2019-11-10 18:00:00 9.9 8 Norte 23 Norte 0 1006 1.9 83
2019-11-10 17:00:00 9.6 9 Norte 37 Nordeste 0 1005.7 1.1 81
2019-11-10 16:00:00 10.9 10 Noroeste 23 Noroeste 0 1005 -0.2 78
2019-11-10 15:00:00 11.5 10 Norte 24 Norte 0 1004.1 -2.1 77
2019-11-10 14:00:00 10.8 17 Norte 42 Norte 0 1004.6 -1.7 82
2019-11-10 13:00:00 9.5 20 Noroeste 43 Norte 1.2 1005.2 -0.1 89
2019-11-10 12:00:00 9.4 22 Norte 40 Norte 1.8 1006.2 1.5 88
2019-11-10 11:00:00 9.3 24 Norte 54 Norte 2.2 1006.3 1.6 91
2019-11-10 10:00:00 9.6 29 Norte 48 Norte 2.2 1005.3 0.8 92
2019-11-10 09:00:00 11.4 14 Nordeste 33 Nordeste 0 1004.7 0.8 90
2019-11-10 08:00:00 10.9 4 Noroeste 28 Norte 0.8 1004.7 0.6 90
2019-11-10 07:00:00 11 23 Noroeste 48 Noroeste 2.6 1004.5 -0.7 90
2019-11-10 06:00:00 13.3 14 Oeste 24 Oeste 0.6 1003.9 -1.7 88
2019-11-10 05:00:00 13.8 4 Oeste 18 Oeste 0 1004.1 -2.7 85
2019-11-10 04:00:00 13.8 14 Oeste 30 Oeste 1 1005.2 -2.8 83
2019-11-10 03:00:00 16.4 11 Oeste 28 Oeste 0 1005.6 -3.3 72
2019-11-10 02:00:00 16.3 13 Oeste 28 Oeste 0 1006.8 -3 62
2019-11-10 01:00:00 16 13 Oeste 27 Noroeste 0 1008 -2.8 56
2019-11-10 00:00:00 15.8 14 Oeste 25 Oeste 0 1008.9 -2.4 57
2019-11-09 23:00:00 14.8 14 Oeste 22 Oeste 0 1009.8 -2.1 62
2019-11-09 22:00:00 14.4 14 Oeste 22 Oeste 0 1010.8 -1.3 60
2019-11-09 21:00:00 14.4 14 Oeste 26 Noroeste 0 1011.3 -0.4 60
2019-11-09 20:00:00 13.7 9 Oeste 20 Noroeste 0 1011.9 0.1 64
2019-11-09 19:00:00 14.4 10 Noroeste 29 Noroeste 0 1012.1 0.4 60
2019-11-09 18:00:00 14.9 17 Noroeste 37 Noroeste 0 1011.7 -0.3 59
2019-11-09 17:00:00 15.8 19 Noroeste 38 Oeste 0 1011.8 -0.1 53
2019-11-09 16:00:00 17.4 19 Noroeste 39 Noroeste 0 1011.7 -0.6 50
2019-11-09 15:00:00 17.8 19 Noroeste 41 Noroeste 0 1012 -1.1 50
2019-11-09 14:00:00 18.3 15 Noroeste 33 Noroeste 0 1011.9 -1.5 49
2019-11-09 13:00:00 17.9 15 Noroeste 33 Noroeste 0 1012.3 -0.7 47
2019-11-09 12:00:00 17.4 18 Noroeste 40 Norte 0 1013.1 0.2 52
2019-11-09 11:00:00 16.6 19 Noroeste 31 Norte 0 1013.4 1.5 56
2019-11-09 10:00:00 15.5 18 Noroeste 35 Noroeste 0 1013 1.8 58
2019-11-09 09:00:00 14.2 17 Noroeste 40 Noroeste 0 1012.9 2.5 62
2019-11-09 08:00:00 12.9 21 Noroeste 37 Noroeste 0 1011.9 1.6 68
2019-11-09 07:00:00 12.7 18 Noroeste 42 Noroeste 0 1011.2 1.4 65
2019-11-09 06:00:00 12.8 20 Noroeste 42 Noroeste 0 1010.4 0.4 66
2019-11-09 05:00:00 12.6 18 Noroeste 41 Noroeste 0 1010.3 0.5 67
2019-11-09 04:00:00 12.6 22 Noroeste 51 Noroeste 0 1009.8 0.1 67
2019-11-09 03:00:00 12.7 22 Noroeste 39 Noroeste 0 1010 0.5 67
2019-11-09 02:00:00 12.5 22 Noroeste 42 Noroeste 0 1009.8 0.8 69
2019-11-09 01:00:00 13 21 Noroeste 44 Noroeste 0 1009.7 1.5 65
2019-11-09 00:00:00 13.5 22 Noroeste 55 Noroeste 0 1009.5 1.2 62
2019-11-08 23:00:00 13.9 30 Noroeste 54 Noroeste 0 1009 0.2 58
2019-11-08 22:00:00 14.5 28 Noroeste 47 Noroeste 0 1008.2 -0.9 56
2019-11-08 21:00:00 14.3 12 Noroeste 24 Noroeste 0 1008.3 -0.4 54
2019-11-08 20:00:00 14 7 Sudoeste 19 Oeste 0 1008.8 0.7 61
2019-11-08 19:00:00 13.5 14 Oeste 22 Noroeste 0 1009.1 1.8 56
2019-11-08 18:00:00 14.1 12 Oeste 31 Noroeste 0 1008.7 2 52
2019-11-08 17:00:00 15.5 12 Noroeste 29 Noroeste 0 1008.1 1.6 48
2019-11-08 16:00:00 16.5 14 Noroeste 34 Noroeste 0 1007.3 0.8 44
2019-11-08 15:00:00 16.1 15 Noroeste 36 Noroeste 0 1006.7 -0.4 46
2019-11-08 14:00:00 17.1 18 Noroeste 33 Noroeste 0 1006.5 -1 41
2019-11-08 13:00:00 17 17 Oeste 35 Noroeste 0 1006.5 -0.8 45
2019-11-08 12:00:00 15.7 12 Noroeste 24 Noroeste 0 1007.1 0.3 47
2019-11-08 11:00:00 13.8 8 Oeste 14 Oeste 0 1007.5 1.5 70
2019-11-08 10:00:00 12.3 8 Oeste 31 Sudoeste 0 1007.3 1.8 71
2019-11-08 09:00:00 11.7 6 Norte 14 Noroeste 0 1006.8 1.6 71
2019-11-08 08:00:00 11.3 6 Noroeste 15 Oeste 0 1006 1.8 72
2019-11-08 07:00:00 11.9 9 Sudoeste 31 Norte 0 1005.5 1.1 70
2019-11-08 06:00:00 12 18 Norte 42 Noroeste 0 1005.2 1.2 69
2019-11-08 05:00:00 12.4 21 Noroeste 35 Noroeste 0 1004.2 -0.9 67
2019-11-08 04:00:00 11.3 7 Oeste 15 Noroeste 0 1004.4 -0.2 72
2019-11-08 03:00:00 11.2 7 Nordeste 34 Noroeste 0 1004 -0.6 70
2019-11-08 02:00:00 11.8 13 Noroeste 30 Noroeste 0 1005.1 0.3 74
2019-11-08 01:00:00 11.3 12 Norte 23 Norte 0 1004.6 0 80
2019-11-08 00:00:00 12.3 15 Norte 36 Norte 0.2 1004.6 0.7 85
2019-11-07 23:00:00 13.9 12 Norte 19 Noroeste 2.4 1004.8 0.8 91
2019-11-07 22:00:00 13.4 9 Norte 38 Norte 11.2 1004.6 -0.1 91
2019-11-07 21:00:00 17.7 16 Oeste 35 Oeste 0 1003.9 -0.9 80
2019-11-07 20:00:00 16.6 18 Oeste 28 Oeste 0 1004 -1.3 82
2019-11-07 19:00:00 15.9 5 Oeste 17 Oeste 0 1004.7 -0.4 85
2019-11-07 18:00:00 16.1 12 Oeste 37 Oeste 5.6 1004.8 -0.4 86
2019-11-07 17:00:00 18.1 11 Noroeste 31 Oeste 0 1005.3 -0.3 67
2019-11-07 16:00:00 19.3 18 Oeste 42 Oeste 0 1005.1 -0.8 60
2019-11-07 15:00:00 20 24 Oeste 44 Oeste 0 1005.2 -1.5 54
2019-11-07 14:00:00 19.4 28 Oeste 51 Oeste 0 1005.6 -1.7 55
2019-11-07 13:00:00 19.9 31 Oeste 49 Oeste 0 1005.9 -1.6 50
2019-11-07 12:00:00 19.7 24 Oeste 41 Oeste 0 1006.7 -0.9 52
2019-11-07 11:00:00 18.9 23 Oeste 39 Oeste 0 1007.3 0.1 56
2019-11-07 10:00:00 18.7 17 Oeste 31 Oeste 0 1007.5 0.6 58
2019-11-07 09:00:00 16.8 12 Oeste 22 Oeste 0 1007.6 0.6 67
2019-11-07 08:00:00 15.4 13 Oeste 18 Oeste 0 1007.2 -0.1 70
2019-11-07 07:00:00 15.2 10 Oeste 23 Oeste 0 1006.9 -0.9 73
2019-11-07 06:00:00 15.2 13 Oeste 18 Oeste 0 1007 -1.4 69
2019-11-07 05:00:00 14.6 10 Oeste 17 Oeste 0 1007.3 -1.7 70
2019-11-07 04:00:00 14.9 8 Noroeste 15 Oeste 0 1007.8 -1.8 64
2019-11-07 03:00:00 15.1 11 Oeste 16 Oeste 0 1008.4 -1.6 63
2019-11-07 02:00:00 15 9 Oeste 16 Oeste 0 1009 -1.3 66
2019-11-07 01:00:00 14.9 9 Oeste 20 Oeste 0 1009.6 -0.7 64
2019-11-07 00:00:00 13.2 9 Noroeste 15 Noroeste 0 1010 -0.1 73
2019-11-06 23:00:00 12.7 9 Norte 11 Noroeste 0 1010.3 0.4 77
2019-11-06 22:00:00 13.1 6 Norte 10 Norte 0 1010.3 0.7 72
2019-11-06 21:00:00 13.6 4 Noroeste 13 Oeste 0 1010.1 1.1 70
2019-11-06 20:00:00 14.5 3 Noroeste 15 Norte 0 1009.9 1.4 64
2019-11-06 19:00:00 15.1 7 Norte 13 Nordeste 0 1009.6 1.2 61
2019-11-06 18:00:00 16.5 6 Noroeste 21 Oeste 0 1009 0.8 54
2019-11-06 17:00:00 19.1 14 Oeste 23 Oeste 0 1008.5 0.2 49
2019-11-06 16:00:00 20.3 8 Noroeste 18 Oeste 0 1008.4 0.1 45
2019-11-06 15:00:00 20.5 9 Noroeste 23 Norte 0 1008.2 -0.4 44
2019-11-06 14:00:00 19.6 13 Noroeste 27 Norte 0 1008.3 -0.3 46
2019-11-06 13:00:00 18.8 10 Norte 25 Noroeste 0 1008.3 -0.1 46
2019-11-06 12:00:00 19.6 11 Noroeste 32 Noroeste 0 1008.6 0.4 46
2019-11-06 11:00:00 18.2 15 Noroeste 30 Noroeste 0 1008.6 1 52
2019-11-06 10:00:00 17.9 12 Noroeste 29 Noroeste 0 1008.4 1.8 51
2019-11-06 09:00:00 16.5 13 Noroeste 27 Oeste 0 1008.2 1.7 56
2019-11-06 08:00:00 15.2 17 Noroeste 33 Noroeste 0 1007.6 1.3 58
2019-11-06 07:00:00 14.7 15 Noroeste 33 Noroeste 0 1006.6 0.3 60
2019-11-06 06:00:00 15.1 16 Noroeste 28 Noroeste 0 1006.5 0.3 58
2019-11-06 05:00:00 14.9 11 Noroeste 26 Noroeste 0 1006.3 -0.1 59
2019-11-06 04:00:00 15 11 Noroeste 22 Noroeste 0 1006.3 -0.3 64
2019-11-06 03:00:00 15.3 10 Noroeste 26 Noroeste 0 1006.2 -0.5 65
2019-11-06 02:00:00 15.3 13 Noroeste 24 Noroeste 0 1006.4 0.5 64
2019-11-06 01:00:00 14.2 6 Noroeste 19 Norte 0 1006.6 0.4 72
2019-11-06 00:00:00 16 11 Noroeste 40 Oeste 0.2 1006.7 0.7 70